Terminal Aerodrome Forecast
Issued by NWS

Home | Current Version | Previous Version | Text Only | Print | Product List | Glossary On
Versions: 1 2 3 4 5 6 7 8 9 10 11 12 13 14 15 16 17 18 19 20 21 22 23 24 25 26
000
FTUS45 KABQ 222344 RRA
TAFLVS
TAF
KLVS 222344Z 2300/2324 20020G30KT P6SM SCT070 BKN090
     FM230200 18013KT P6SM SCT100
     FM230900 16007KT P6SM SCT025
     FM231500 22015KT P6SM SKC
     FM231800 23022G32KT P6SM FEW100=

USA.gov is the U.S. government's official web portal to all federal, state and local government web resources and services.